Terminal Aerodrome Forecast
Issued by NWS

Home | Current Version | Previous Version | Text Only | Print | Product List | Glossary On
Versions: 1 2 3 4 5 6 7 8 9 10 11 12 13 14 15 16 17 18 19 20 21 22 23 24 25 26 27 28 29 30 31 32 33 34 35 36 37 38 39 40 41 42 43 44 45 46 47 48 49 50
000
FTUS44 KHGX 211803 AAA
TAFIAH
TAF AMD
KIAH 211803Z 2118/2224 18009KT P6SM SCT025 BKN150
     FM212100 21010KT P6SM BKN120
     FM220000 20005KT P6SM SCT100
     FM220400 19004KT 5SM BR SKC
     FM220730 25013G23KT P6SM SCT150
     FM221600 29020G30KT P6SM SCT035
     FM222000 31020G30KT P6SM BKN040=

USA.gov is the U.S. government's official web portal to all federal, state and local government web resources and services.